Logo AVAMET
Benvolgut visitant, si us plau, ingressa Recuperar contrasenya

Elx la Gàl·lia AEMET

Dades diàries. Acumulats / Últims 30 dies disponibles

Data Temperatura (°C) Humitat rel. (%) Pressió rel. (hPa) Vent (km/h) Precipitació
Mínima Mitjana Màxima Amplitud
tèrmica
Mínima Mitjana Màxima Mínima Mitjana Màxima Predom. Mitjana Ràfega
màxima
Total
(mm)
Índex-n
Mínima Mitjana Màxima Mínima Mitjana Màxima n
0 a 1
P0 max
mm 5'
Dades mensuals acumulades fins l'últim dia disponible
11/2019 3,4 9,7 17,3 15,2 16,2 20,7 27,4 24,0   7,6
Dades anuals acumulades fins l'últim dia disponible
2019 1,7 13,2 25,3 19,2 13,9 25,3 40,3 38,6   397,4
Últims 30 dies disponibles
21-11-2019 6,1     11,7     17,2 11,1 0,6
20-11-2019 5,8     11,5     17,2 11,4 0,8
19-11-2019 4,0     11,0     18,0 14,0 0,0
18-11-2019 6,4     12,5     18,6 12,2 5,6
17-11-2019 3,4     10,8     18,1 14,7 0,2
16-11-2019 7,4     12,3     17,3 9,9 0,0
15-11-2019        
14-11-2019 6,3     11,3     16,2 9,9 0,4
13-11-2019 11,9     18,0     24,1 12,2 0,0
12-11-2019 9,8     15,3     20,9 11,1 0,0
11-11-2019 8,0     13,1     18,2 10,2 0,0
10-11-2019 10,5     14,0     17,5 7,0 0,0
09-11-2019 10,2     15,7     21,1 10,9 0,0
08-11-2019        
07-11-2019 8,9     16,3     23,7 14,8 0,0
06-11-2019 11,5     17,1     22,6 11,1 0,0
05-11-2019 14,4     17,8     21,3 6,9 0,0
04-11-2019 16,5     21,7     26,9 10,4 0,0
03-11-2019 17,3     22,0     26,8 9,5 0,0
02-11-2019 16,1     21,8     27,4 11,3 0,0
01-11-2019        
31-10-2019 17,2     22,6     27,9 10,7 0,0
30-10-2019 17,2     21,9     26,5 9,3 0,0
29-10-2019 12,9     20,4     27,9 15,0 0,0
28-10-2019 12,0     16,7     21,4 9,4 0,0
27-10-2019 12,9     18,6     24,3 11,4 0,0
26-10-2019 10,6     17,4     24,2 13,6 0,2
25-10-2019 13,0     18,8     24,5 11,5 0,0
24-10-2019 9,3     15,8     22,2 12,9 0,2
23-10-2019 9,1     14,8     20,4 11,3 0,2
Últims 13 mesos disponibles
10/2019 9,1 14,2 18,8 20,1 15,6 26,0 32,9 23,8 25,8
09/2019 15,7 18,6 23,3 23,8 20,6 29,0 33,3 17,6 143,6
08/2019 18,1 20,8 25,3 26,9 28,4 33,0 40,3 22,2 46,4
07/2019 18,0 21,1 24,7 27,3 29,2 33,4 38,0 20,0 0,0
06/2019 11,4 16,4 20,8 23,0 24,8 29,7 36,4 25,0 0,2
05/2019 10,2 13,1 18,6 19,1 21,0 25,0 31,1 20,9 1,4
04/2019 5,6 10,4 15,2 16,0 14,3 21,4 30,6 25,0 155,2
03/2019 4,7 7,6 12,2 14,3 14,7 21,1 30,3 25,6 15,6
02/2019 3,6 6,5 10,8 13,1 15,2 19,6 26,4 22,8 0,6
01/2019 1,7 6,1 11,0 12,1 13,9 18,1 23,4 21,7 1,0
12/2018 4,7 8,2 12,5 14,0 14,4 19,9 26,7 22,0 8,0
11/2018 4,7 10,1 13,8 15,1 14,4 20,1 23,9 19,2 41,4
10/2018 6,2 13,8 18,9 19,4 14,8 25,0 29,6 23,4 41,0
Tots els anys disponibles
2018 1,4 13,3 24,5 19,1 9,2 24,8 38,0 36,6 267,4
2017 0,9 12,9 26,9 18,9 7,7 24,8 38,6 37,7 252,0
2016 4,1 13,9 23,4 19,5 12,4 25,1 40,2 36,1 259,6
2015 1,1 12,2 26,0 18,0 11,0 23,7 40,9 39,8 126,6
2014 1,8 13,5 24,9 19,4 12,1 25,3 38,5 36,7 145,6
2013 0,4 13,2 17,2 19,3 21,3 25,4 38,4 38,0 194,4
2012 -0,8 13,5 24,7 19,7 11,0 25,8 40,8 41,6 237,2
Temperatura (°C)
Humitat relativa (%)
Velocitat del vent i ràfega màxima (km/h)
Direcció del vent (°)
Pressió (hPa)
Precipitació (mm)
Nota sobre les dades: s'avisa a l'usuari de la provisionalitat i no oficialitat d'aquestes dades
Logo AVAMET blanc
Web allotjada a Sollutia
Llicència de Creative CommonsLa web d'AVAMET i els seus continguts estan subjectes a una llicència de
Reconeixement - No Comercial - Compartir igual
Últimes estacions: Faura (Inforatge), Benifairó de les Valls (Inforatge), Xàbia - Les Valls (Soci), Xàbia - Alt de la Granadella (Soci), Villena - Sierra de Salinas (Soci), Sueca - Centre (Inforatge) - - -